Saint Louis, Michigan
Current Conditions -  °F | °C
As of 8:35 PM on Monday 24 Nov 2014 (Local Time) from KAMN Reporting Station
Overcast Overcast  
Wind Chill: 21°   Ceiling: 2000
Heat Index: 33°   Visibility: 10mi
Dew Point: 29°   Wind: 21mph
Humidity: 87%   Direction: 220°SW
Pressure: 29.51"   Gusts: 35mph
Location:  43.41°N, 84.61°W
Report Text: KAMN 250135Z AUTO 22018G30KT 10SM OVC020 00/M01 A2951 RMK AO2 T00041015
Loading
Personal Weather Stations






























Interactive Weather Map New forecast layout! Learn more

10-Day Weather Forecast

Advertisements
Track Severe Weather on mobile